createdAt,value
2018-06-04T00:00:15.202Z,17.39
2018-06-04T00:11:11.288Z,17.47
2018-06-04T00:22:13.796Z,17.55
2018-06-04T00:33:11.806Z,17.69
2018-06-04T00:44:14.201Z,17.55
2018-06-04T00:55:11.264Z,17.50
2018-06-04T01:06:12.776Z,17.35
2018-06-04T01:17:16.258Z,17.10
2018-06-04T01:28:19.384Z,16.99
2018-06-04T01:39:23.164Z,17.00
2018-06-04T01:50:21.689Z,16.73
2018-06-04T02:01:20.742Z,16.65
2018-06-04T02:12:20.012Z,16.55
2018-06-04T02:23:20.144Z,16.30
2018-06-04T02:34:18.676Z,16.33
2018-06-04T02:45:22.244Z,16.12
2018-06-04T02:56:22.516Z,16.01
2018-06-04T03:07:23.333Z,16.03
2018-06-04T03:18:26.078Z,16.07
2018-06-04T03:29:22.906Z,15.92
2018-06-04T03:40:22.068Z,15.89
2018-06-04T03:51:20.778Z,15.96
2018-06-04T04:02:21.734Z,15.94
2018-06-04T04:13:23.553Z,16.08
2018-06-04T04:24:28.091Z,16.33
2018-06-04T04:35:31.039Z,16.48
2018-06-04T04:46:29.376Z,16.67
2018-06-04T04:57:26.068Z,17.10
2018-06-04T05:08:29.075Z,17.32
2018-06-04T05:19:29.642Z,17.63
2018-06-04T05:30:31.534Z,18.10
2018-06-04T05:41:34.380Z,18.53
2018-06-04T05:52:36.832Z,18.92
2018-06-04T06:03:41.448Z,19.25
2018-06-04T06:14:41.081Z,19.61
2018-06-04T06:25:40.294Z,19.88
2018-06-04T06:36:43.462Z,20.33
2018-06-04T06:47:44.126Z,20.61
2018-06-04T06:58:43.285Z,21.09
2018-06-04T07:09:47.206Z,21.33
2018-06-04T07:20:49.670Z,21.76
2018-06-04T07:31:49.148Z,22.20
2018-06-04T07:42:49.529Z,22.46
2018-06-04T07:53:47.878Z,22.97
2018-06-04T08:04:44.744Z,23.22
2018-06-04T08:15:38.129Z,23.37
2018-06-04T08:26:42.483Z,23.24
2018-06-04T08:37:44.644Z,23.49
2018-06-04T08:48:46.050Z,23.98
2018-06-04T08:59:46.660Z,23.93
2018-06-04T09:10:51.201Z,24.91
2018-06-04T09:21:52.425Z,24.56
2018-06-04T09:32:54.406Z,25.27
2018-06-04T09:43:58.109Z,25.15
2018-06-04T09:54:58.036Z,25.60
2018-06-04T10:05:59.339Z,25.93
2018-06-04T10:17:02.710Z,26.39
2018-06-04T10:28:06.483Z,26.39
2018-06-04T10:39:11.792Z,26.86
2018-06-04T10:50:11.318Z,26.86
2018-06-04T11:01:11.052Z,26.15
2018-06-04T11:12:14.199Z,27.97
2018-06-04T11:23:13.948Z,28.39
2018-06-04T11:34:11.096Z,29.18
2018-06-04T11:45:06.948Z,29.65
2018-06-04T11:56:09.698Z,28.54
2018-06-04T12:07:09.661Z,30.43
2018-06-04T12:17:54.402Z,32.16
2018-06-04T12:28:37.224Z,30.06
2018-06-04T12:39:42.984Z,30.89
2018-06-04T12:50:25.396Z,30.92
2018-06-04T13:01:13.418Z,32.18
2018-06-04T13:11:54.841Z,30.85
2018-06-04T13:22:58.957Z,30.85
2018-06-04T13:33:56.820Z,30.18
2018-06-04T13:44:54.381Z,29.25
2018-06-04T13:55:54.775Z,30.33
2018-06-04T14:06:52.478Z,28.28
2018-06-04T14:17:54.706Z,28.28
2018-06-04T14:28:49.162Z,24.66
2018-06-04T14:39:48.305Z,22.12
2018-06-04T14:50:39.786Z,21.20
2018-06-04T15:01:32.778Z,19.98
2018-06-04T15:12:27.201Z,19.69
2018-06-04T15:23:23.512Z,19.60
2018-06-04T15:34:18.399Z,19.71
2018-06-04T15:45:13.291Z,19.60
2018-06-04T15:56:13.891Z,19.65
2018-06-04T16:07:17.036Z,19.65
2018-06-04T16:18:10.655Z,19.35
2018-06-04T16:29:07.933Z,19.60
2018-06-04T16:40:05.234Z,19.40
2018-06-04T16:51:02.923Z,19.31
2018-06-04T17:02:08.320Z,19.32
2018-06-04T17:13:02.697Z,19.28
2018-06-04T17:23:52.639Z,19.45
2018-06-04T17:34:51.357Z,19.45
2018-06-04T17:45:53.481Z,19.38
2018-06-04T17:56:55.545Z,19.27
2018-06-04T18:07:43.449Z,19.15
2018-06-04T18:18:41.920Z,19.15
2018-06-04T18:29:34.854Z,19.02
2018-06-04T18:40:32.953Z,18.97
2018-06-04T18:51:26.191Z,18.87
2018-06-04T19:02:27.163Z,18.69
2018-06-04T19:13:17.612Z,18.68
2018-06-04T19:24:12.045Z,18.57
2018-06-04T19:35:08.840Z,18.44
2018-06-04T19:46:08.722Z,18.44
2018-06-04T19:57:07.921Z,18.14
2018-06-04T20:08:05.413Z,18.22
2018-06-04T20:19:05.501Z,18.22
2018-06-04T20:30:06.376Z,18.25
2018-06-04T20:41:05.279Z,18.09
2018-06-04T20:52:02.197Z,18.03
2018-06-04T21:02:58.146Z,17.82
2018-06-04T21:13:54.321Z,17.82
2018-06-04T21:24:55.732Z,17.82
2018-06-04T21:35:49.758Z,17.73
2018-06-04T21:46:50.495Z,17.71
2018-06-04T21:57:55.043Z,17.64
2018-06-04T22:08:58.503Z,17.55
2018-06-04T22:20:01.393Z,17.54
2018-06-04T22:31:01.991Z,17.35
2018-06-04T22:42:00.509Z,17.28
2018-06-04T22:52:56.673Z,17.02
2018-06-04T23:03:54.281Z,16.96
2018-06-04T23:14:58.134Z,16.85
2018-06-04T23:26:01.564Z,16.84
2018-06-04T23:37:05.755Z,16.74
2018-06-04T23:48:08.064Z,16.59
2018-06-04T23:59:08.703Z,16.65
